sensor_id;sensor_type;location;lat;lon;timestamp;pressure;altitude;pressure_sealevel;temperature;humidity
47054;BME280;32811;52.382;5.270;2022-08-19T00:01:57;101407.72;;;16.55;100.00
47054;BME280;32811;52.382;5.270;2022-08-19T00:04:28;101409.44;;;16.56;100.00
47054;BME280;32811;52.382;5.270;2022-08-19T00:06:55;101401.69;;;16.51;100.00
47054;BME280;32811;52.382;5.270;2022-08-19T00:09:23;101399.13;;;16.47;100.00
47054;BME280;32811;52.382;5.270;2022-08-19T00:11:52;101405.25;;;16.44;100.00
47054;BME280;32811;52.382;5.270;2022-08-19T00:14:19;101411.34;;;16.42;100.00
47054;BME280;32811;52.382;5.270;2022-08-19T00:16:47;101417.41;;;16.44;100.00
47054;BME280;32811;52.382;5.270;2022-08-19T00:19:15;101409.69;;;16.34;100.00
47054;BME280;32811;52.382;5.270;2022-08-19T00:21:42;101416.63;;;16.34;100.00
47054;BME280;32811;52.382;5.270;2022-08-19T00:24:11;101415.81;;;16.30;100.00
47054;BME280;32811;52.382;5.270;2022-08-19T00:26:40;101426.22;;;16.30;100.00
47054;BME280;32811;52.382;5.270;2022-08-19T00:29:09;101411.56;;;16.20;100.00
47054;BME280;32811;52.382;5.270;2022-08-19T00:31:39;101418.53;;;16.19;100.00
47054;BME280;32811;52.382;5.270;2022-08-19T00:34:08;101411.59;;;16.17;100.00
47054;BME280;32811;52.382;5.270;2022-08-19T00:36:34;101407.28;;;16.14;100.00
47054;BME280;32811;52.382;5.270;2022-08-19T00:39:01;101412.50;;;16.13;100.00
47054;BME280;32811;52.382;5.270;2022-08-19T00:41:28;101409.94;;;16.10;100.00
47054;BME280;32811;52.382;5.270;2022-08-19T00:44:11;101409.09;;;16.06;100.00
47054;BME280;32811;52.382;5.270;2022-08-19T00:46:41;101410.00;;;16.02;100.00
47054;BME280;32811;52.382;5.270;2022-08-19T00:49:12;101399.63;;;15.97;100.00
47054;BME280;32811;52.382;5.270;2022-08-19T00:51:42;101400.50;;;15.96;100.00
47054;BME280;32811;52.382;5.270;2022-08-19T00:54:11;101390.09;;;15.96;100.00
47054;BME280;32811;52.382;5.270;2022-08-19T00:56:37;101386.59;;;15.97;100.00
47054;BME280;32811;52.382;5.270;2022-08-19T00:59:07;101385.75;;;15.94;100.00
47054;BME280;32811;52.382;5.270;2022-08-19T01:01:40;101387.50;;;15.95;100.00
47054;BME280;32811;52.382;5.270;2022-08-19T01:04:07;101388.44;;;15.88;100.00
47054;BME280;32811;52.382;5.270;2022-08-19T01:06:36;101391.88;;;15.90;100.00
47054;BME280;32811;52.382;5.270;2022-08-19T01:09:04;101397.91;;;15.93;100.00
47054;BME280;32811;52.382;5.270;2022-08-19T01:11:34;101404.88;;;15.91;100.00
47054;BME280;32811;52.382;5.270;2022-08-19T01:14:01;101405.75;;;15.90;100.00
47054;BME280;32811;52.382;5.270;2022-08-19T01:16:29;101398.00;;;15.86;100.00
47054;BME280;32811;52.382;5.270;2022-08-19T01:18:57;101404.09;;;15.83;100.00
47054;BME280;32811;52.382;5.270;2022-08-19T01:21:49;101387.66;;;15.73;100.00
47054;BME280;32811;52.382;5.270;2022-08-19T01:24:18;101398.88;;;15.82;100.00
47054;BME280;32811;52.382;5.270;2022-08-19T01:26:47;101400.63;;;15.81;100.00
47054;BME280;32811;52.382;5.270;2022-08-19T01:29:14;101405.00;;;15.79;100.00
47054;BME280;32811;52.382;5.270;2022-08-19T01:31:41;101403.22;;;15.83;100.00
47054;BME280;32811;52.382;5.270;2022-08-19T01:34:07;101400.66;;;15.78;100.00
47054;BME280;32811;52.382;5.270;2022-08-19T01:36:38;101405.00;;;15.77;100.00
47054;BME280;32811;52.382;5.270;2022-08-19T01:39:10;101408.50;;;15.75;100.00
47054;BME280;32811;52.382;5.270;2022-08-19T01:41:36;101401.56;;;15.71;100.00
47054;BME280;32811;52.382;5.270;2022-08-19T01:44:05;101405.03;;;15.68;100.00
47054;BME280;32811;52.382;5.270;2022-08-19T01:46:46;101394.69;;;15.61;100.00
47054;BME280;32811;52.382;5.270;2022-08-19T01:49:16;101405.06;;;15.62;100.00
47054;BME280;32811;52.382;5.270;2022-08-19T01:51:43;101408.56;;;15.61;100.00
47054;BME280;32811;52.382;5.270;2022-08-19T01:54:12;101408.56;;;15.60;100.00
47054;BME280;32811;52.382;5.270;2022-08-19T01:56:50;101412.91;;;15.57;100.00
47054;BME280;32811;52.382;5.270;2022-08-19T01:59:19;101399.94;;;15.54;100.00
47054;BME280;32811;52.382;5.270;2022-08-19T02:01:47;101402.53;;;15.54;100.00
47054;BME280;32811;52.382;5.270;2022-08-19T02:04:14;101411.19;;;15.56;100.00
47054;BME280;32811;52.382;5.270;2022-08-19T02:06:40;101399.94;;;15.54;100.00
47054;BME280;32811;52.382;5.270;2022-08-19T02:09:08;101412.94;;;15.54;100.00
47054;BME280;32811;52.382;5.270;2022-08-19T02:11:36;101404.28;;;15.49;100.00
47054;BME280;32811;52.382;5.270;2022-08-19T02:14:05;101411.28;;;15.46;100.00
47054;BME280;32811;52.382;5.270;2022-08-19T02:16:32;101406.09;;;15.43;100.00
47054;BME280;32811;52.382;5.270;2022-08-19T02:18:59;101409.56;;;15.42;100.00
47054;BME280;32811;52.382;5.270;2022-08-19T02:21:29;101419.97;;;15.42;100.00
47054;BME280;32811;52.382;5.270;2022-08-19T02:23:56;101417.38;;;15.40;100.00
47054;BME280;32811;52.382;5.270;2022-08-19T02:26:23;101413.91;;;15.38;100.00
47054;BME280;32811;52.382;5.270;2022-08-19T02:28:52;101413.06;;;15.31;100.00
47054;BME280;32811;52.382;5.270;2022-08-19T02:31:21;101420.03;;;15.34;100.00
47054;BME280;32811;52.382;5.270;2022-08-19T02:33:51;101421.78;;;15.30;100.00
47054;BME280;32811;52.382;5.270;2022-08-19T02:36:22;101425.25;;;15.28;100.00
47054;BME280;32811;52.382;5.270;2022-08-19T02:38:50;101420.91;;;15.28;100.00
47054;BME280;32811;52.382;5.270;2022-08-19T02:41:27;101425.25;;;15.28;100.00
47054;BME280;32811;52.382;5.270;2022-08-19T02:43:55;101428.75;;;15.25;100.00
47054;BME280;32811;52.382;5.270;2022-08-19T02:46:45;101423.56;;;15.21;100.00
47054;BME280;32811;52.382;5.270;2022-08-19T02:49:12;101425.28;;;15.22;100.00
47054;BME280;32811;52.382;5.270;2022-08-19T02:51:43;101416.63;;;15.20;100.00
47054;BME280;32811;52.382;5.270;2022-08-19T02:54:11;101413.13;;;15.24;100.00
47054;BME280;32811;52.382;5.270;2022-08-19T02:56:40;101410.50;;;15.30;100.00
47054;BME280;32811;52.382;5.270;2022-08-19T02:59:07;101409.63;;;15.34;100.00
47054;BME280;32811;52.382;5.270;2022-08-19T03:01:38;101413.09;;;15.36;100.00
47054;BME280;32811;52.382;5.270;2022-08-19T03:04:07;101409.63;;;15.34;100.00
47054;BME280;32811;52.382;5.270;2022-08-19T03:06:37;101397.47;;;15.33;100.00
47054;BME280;32811;52.382;5.270;2022-08-19T03:09:03;101394.88;;;15.33;100.00
47054;BME280;32811;52.382;5.270;2022-08-19T03:11:32;101386.25;;;15.25;100.00
47054;BME280;32811;52.382;5.270;2022-08-19T03:14:00;101396.66;;;15.29;100.00
47054;BME280;32811;52.382;5.270;2022-08-19T03:16:29;101400.97;;;15.30;100.00
47054;BME280;32811;52.382;5.270;2022-08-19T03:19:00;101402.72;;;15.22;100.00
47054;BME280;32811;52.382;5.270;2022-08-19T03:21:29;101394.09;;;15.17;100.00
47054;BME280;32811;52.382;5.270;2022-08-19T03:23:58;101398.41;;;15.20;100.00
47054;BME280;32811;52.382;5.270;2022-08-19T03:26:25;101397.59;;;15.16;100.00
47054;BME280;32811;52.382;5.270;2022-08-19T03:28:52;101392.41;;;15.14;100.00
47054;BME280;32811;52.382;5.270;2022-08-19T03:31:25;101394.09;;;15.17;100.00
47054;BME280;32811;52.382;5.270;2022-08-19T03:34:26;101382.81;;;15.18;100.00
47054;BME280;32811;52.382;5.270;2022-08-19T03:36:55;101379.31;;;15.27;100.00
47054;BME280;32811;52.382;5.270;2022-08-19T03:39:23;101381.94;;;15.22;100.00
47054;BME280;32811;52.382;5.270;2022-08-19T03:41:52;101374.16;;;15.19;100.00
47054;BME280;32811;52.382;5.270;2022-08-19T03:44:39;101391.44;;;15.25;100.00
47054;BME280;32811;52.382;5.270;2022-08-19T03:47:05;101381.03;;;15.25;100.00
47054;BME280;32811;52.382;5.270;2022-08-19T03:49:33;101384.50;;;15.28;100.00
47054;BME280;32811;52.382;5.270;2022-08-19T03:52:02;101382.78;;;15.27;100.00
47054;BME280;32811;52.382;5.270;2022-08-19T03:54:31;101386.25;;;15.25;100.00
47054;BME280;32811;52.382;5.270;2022-08-19T03:56:58;101380.22;;;15.21;100.00
47054;BME280;32811;52.382;5.270;2022-08-19T03:59:31;101383.72;;;15.17;100.00
47054;BME280;32811;52.382;5.270;2022-08-19T04:02:02;101385.44;;;15.17;100.00
47054;BME280;32811;52.382;5.270;2022-08-19T04:04:29;101393.22;;;15.21;100.00
47054;BME280;32811;52.382;5.270;2022-08-19T04:06:57;101389.75;;;15.19;100.00
47054;BME280;32811;52.382;5.270;2022-08-19T04:09:24;101387.13;;;15.24;100.00
47054;BME280;32811;52.382;5.270;2022-08-19T04:11:55;101385.38;;;15.24;100.00
47054;BME280;32811;52.382;5.270;2022-08-19T04:14:25;101387.97;;;15.29;100.00
47054;BME280;32811;52.382;5.270;2022-08-19T04:16:52;101387.09;;;15.27;100.00
47054;BME280;32811;52.382;5.270;2022-08-19T04:19:20;101387.13;;;15.22;100.00
47054;BME280;32811;52.382;5.270;2022-08-19T04:21:49;101392.38;;;15.19;100.00
47054;BME280;32811;52.382;5.270;2022-08-19T04:24:18;101391.53;;;15.14;100.00
47054;BME280;32811;52.382;5.270;2022-08-19T04:26:45;101378.53;;;15.11;100.00
47054;BME280;32811;52.382;5.270;2022-08-19T04:29:17;101376.81;;;15.10;100.00
47054;BME280;32811;52.382;5.270;2022-08-19T04:31:45;101376.81;;;15.10;100.00
47054;BME280;32811;52.382;5.270;2022-08-19T04:34:14;101366.44;;;15.05;100.00
47054;BME280;32811;52.382;5.270;2022-08-19T04:36:43;101370.75;;;15.08;100.00
47054;BME280;32811;52.382;5.270;2022-08-19T04:39:15;101367.31;;;15.06;100.00
47054;BME280;32811;52.382;5.270;2022-08-19T04:41:44;101369.03;;;15.04;100.00
47054;BME280;32811;52.382;5.270;2022-08-19T04:44:34;101373.38;;;15.00;100.00
47054;BME280;32811;52.382;5.270;2022-08-19T04:47:02;101363.00;;;14.95;100.00
47054;BME280;32811;52.382;5.270;2022-08-19T04:49:37;101370.81;;;14.95;100.00
47054;BME280;32811;52.382;5.270;2022-08-19T04:52:03;101380.34;;;14.98;100.00
47054;BME280;32811;52.382;5.270;2022-08-19T04:54:30;101369.06;;;14.99;100.00
47054;BME280;32811;52.382;5.270;2022-08-19T04:57:06;101378.59;;;15.00;100.00
47054;BME280;32811;52.382;5.270;2022-08-19T04:59:34;101379.44;;;15.05;100.00
47054;BME280;32811;52.382;5.270;2022-08-19T05:02:01;101385.50;;;15.07;100.00
47054;BME280;32811;52.382;5.270;2022-08-19T05:04:28;101395.84;;;15.15;100.00
47054;BME280;32811;52.382;5.270;2022-08-19T05:06:59;101393.25;;;15.17;100.00
47054;BME280;32811;52.382;5.270;2022-08-19T05:09:28;101390.63;;;15.21;100.00
47054;BME280;32811;52.382;5.270;2022-08-19T05:12:15;101387.97;;;15.30;100.00
47054;BME280;32811;52.382;5.270;2022-08-19T05:14:42;101393.13;;;15.36;100.00
47054;BME280;32811;52.382;5.270;2022-08-19T05:17:10;101409.56;;;15.42;100.00
47054;BME280;32811;52.382;5.270;2022-08-19T05:19:53;101412.13;;;15.48;100.00
47054;BME280;32811;52.382;5.270;2022-08-19T05:22:38;101410.31;;;15.56;100.00
47054;BME280;32811;52.382;5.270;2022-08-19T05:25:08;101406.81;;;15.63;100.00
47054;BME280;32811;52.382;5.270;2022-08-19T05:27:39;101406.75;;;15.79;100.00
47054;BME280;32811;52.382;5.270;2022-08-19T05:30:06;101402.22;;;15.96;100.00
47054;BME280;32811;52.382;5.270;2022-08-19T05:32:33;101390.81;;;16.11;100.00
47054;BME280;32811;52.382;5.270;2022-08-19T05:35:00;101388.00;;;16.31;100.00
47054;BME280;32811;52.382;5.270;2022-08-19T05:37:27;101387.75;;;16.54;100.00
47054;BME280;32811;52.382;5.270;2022-08-19T05:39:54;101399.69;;;16.75;100.00
47054;BME280;32811;52.382;5.270;2022-08-19T05:42:21;101386.38;;;16.96;100.00
47054;BME280;32811;52.382;5.270;2022-08-19T05:44:50;101394.63;;;17.31;100.00
47054;BME280;32811;52.382;5.270;2022-08-19T05:47:17;101380.34;;;17.53;100.00
47054;BME280;32811;52.382;5.270;2022-08-19T05:49:47;101391.22;;;17.81;100.00
47054;BME280;32811;52.382;5.270;2022-08-19T05:52:15;101386.38;;;18.10;100.00
47054;BME280;32811;52.382;5.270;2022-08-19T05:54:45;101392.91;;;18.35;100.00
47054;BME280;32811;52.382;5.270;2022-08-19T05:57:17;101387.97;;;18.63;100.00
47054;BME280;32811;52.382;5.270;2022-08-19T05:59:44;101384.88;;;18.88;100.00
47054;BME280;32811;52.382;5.270;2022-08-19T06:02:18;101379.97;;;19.13;100.00
47054;BME280;32811;52.382;5.270;2022-08-19T06:04:44;101384.81;;;19.30;100.00
47054;BME280;32811;52.382;5.270;2022-08-19T06:07:11;101386.13;;;19.49;100.00
47054;BME280;32811;52.382;5.270;2022-08-19T06:09:39;101376.88;;;19.72;100.00
47054;BME280;32811;52.382;5.270;2022-08-19T06:12:08;101382.34;;;19.60;100.00
47054;BME280;32811;52.382;5.270;2022-08-19T06:14:35;101380.22;;;19.40;100.00
47054;BME280;32811;52.382;5.270;2022-08-19T06:17:07;101389.25;;;19.26;100.00
47054;BME280;32811;52.382;5.270;2022-08-19T06:19:34;101392.28;;;19.10;100.00
47054;BME280;32811;52.382;5.270;2022-08-19T06:22:07;101383.00;;;18.95;100.00
47054;BME280;32811;52.382;5.270;2022-08-19T06:24:34;101384.94;;;18.85;100.00
47054;BME280;32811;52.382;5.270;2022-08-19T06:27:02;101384.91;;;18.86;100.00
47054;BME280;32811;52.382;5.270;2022-08-19T06:29:29;101378.91;;;18.81;100.00
47054;BME280;32811;52.382;5.270;2022-08-19T06:31:58;101375.44;;;18.81;100.00
47054;BME280;32811;52.382;5.270;2022-08-19T06:34:28;101371.78;;;18.88;100.00
47054;BME280;32811;52.382;5.270;2022-08-19T06:36:57;101375.00;;;19.02;100.00
47054;BME280;32811;52.382;5.270;2022-08-19T06:39:26;101376.69;;;19.03;100.00
47054;BME280;32811;52.382;5.270;2022-08-19T06:41:56;101374.88;;;19.07;100.00
47054;BME280;32811;52.382;5.270;2022-08-19T06:44:27;101378.38;;;19.06;100.00
47054;BME280;32811;52.382;5.270;2022-08-19T06:46:57;101376.94;;;18.93;100.00
47054;BME280;32811;52.382;5.270;2022-08-19T06:49:24;101381.22;;;18.95;100.00
47054;BME280;32811;52.382;5.270;2022-08-19T06:51:51;101378.44;;;19.04;100.00
47054;BME280;32811;52.382;5.270;2022-08-19T06:54:18;101389.63;;;19.11;100.00
47054;BME280;32811;52.382;5.270;2022-08-19T06:56:46;101388.63;;;19.15;100.00
47054;BME280;32811;52.382;5.270;2022-08-19T06:59:19;101389.41;;;19.20;100.00
47054;BME280;32811;52.382;5.270;2022-08-19T07:01:51;101386.75;;;19.22;100.00
47054;BME280;32811;52.382;5.270;2022-08-19T07:04:22;101387.47;;;19.28;100.00
47054;BME280;32811;52.382;5.270;2022-08-19T07:06:55;101395.91;;;19.41;100.00
47054;BME280;32811;52.382;5.270;2022-08-19T07:09:24;101396.84;;;19.37;100.00
47054;BME280;32811;52.382;5.270;2022-08-19T07:11:52;101395.16;;;19.36;100.00
47054;BME280;32811;52.382;5.270;2022-08-19T07:14:23;101404.91;;;19.29;100.00
47054;BME280;32811;52.382;5.270;2022-08-19T07:16:52;101403.34;;;19.22;100.00
47054;BME280;32811;52.382;5.270;2022-08-19T07:19:22;101405.00;;;19.25;100.00
47054;BME280;32811;52.382;5.270;2022-08-19T07:21:51;101409.31;;;19.27;100.00
47054;BME280;32811;52.382;5.270;2022-08-19T07:24:23;101408.63;;;19.18;100.00
47054;BME280;32811;52.382;5.270;2022-08-19T07:26:52;101410.47;;;19.16;100.00
47054;BME280;32811;52.382;5.270;2022-08-19T07:29:20;101412.06;;;19.21;100.00
47054;BME280;32811;52.382;5.270;2022-08-19T07:31:54;101418.88;;;19.28;100.00
47054;BME280;32811;52.382;5.270;2022-08-19T07:34:27;101413.63;;;19.28;100.00
47054;BME280;32811;52.382;5.270;2022-08-19T07:36:55;101410.91;;;19.33;100.00
47054;BME280;32811;52.382;5.270;2022-08-19T07:39:25;101416.03;;;19.38;100.00
47054;BME280;32811;52.382;5.270;2022-08-19T07:41:53;101417.66;;;19.45;100.00
47054;BME280;32811;52.382;5.270;2022-08-19T07:44:20;101415.53;;;19.61;100.00
47054;BME280;32811;52.382;5.270;2022-08-19T07:46:50;101408.41;;;19.66;100.00
47054;BME280;32811;52.382;5.270;2022-08-19T07:49:19;101415.22;;;19.75;100.00
47054;BME280;32811;52.382;5.270;2022-08-19T07:51:51;101410.34;;;19.58;100.00
47054;BME280;32811;52.382;5.270;2022-08-19T07:54:20;101417.22;;;19.62;100.00
47054;BME280;32811;52.382;5.270;2022-08-19T07:56:47;101415.47;;;19.62;100.00
47054;BME280;32811;52.382;5.270;2022-08-19T07:59:18;101420.91;;;19.53;100.00
47054;BME280;32811;52.382;5.270;2022-08-19T08:01:46;101437.53;;;19.52;100.00
47054;BME280;32811;52.382;5.270;2022-08-19T08:04:13;101426.28;;;19.48;100.00
47054;BME280;32811;52.382;5.270;2022-08-19T08:06:59;101430.31;;;19.62;100.00
47054;BME280;32811;52.382;5.270;2022-08-19T08:09:44;101429.34;;;19.67;100.00
47054;BME280;32811;52.382;5.270;2022-08-19T08:12:23;101427.41;;;19.76;100.00
47054;BME280;32811;52.382;5.270;2022-08-19T08:15:05;101430.44;;;19.95;100.00
47054;BME280;32811;52.382;5.270;2022-08-19T08:17:38;101432.84;;;20.02;100.00
47054;BME280;32811;52.382;5.270;2022-08-19T08:20:18;101445.72;;;20.11;100.00
47054;BME280;32811;52.382;5.270;2022-08-19T08:22:46;101443.09;;;20.11;100.00
47054;BME280;32811;52.382;5.270;2022-08-19T08:25:32;101454.50;;;20.10;100.00
47054;BME280;32811;52.382;5.270;2022-08-19T08:28:01;101451.66;;;20.18;100.00
47054;BME280;32811;52.382;5.270;2022-08-19T08:30:30;101448.06;;;20.22;100.00
47054;BME280;32811;52.382;5.270;2022-08-19T08:32:59;101449.09;;;20.49;100.00
47054;BME280;32811;52.382;5.270;2022-08-19T08:35:28;101451.06;;;20.74;100.00
47054;BME280;32811;52.382;5.270;2022-08-19T08:37:55;101456.09;;;20.82;100.00
47054;BME280;32811;52.382;5.270;2022-08-19T08:43:28;101450.03;;;20.80;100.00
47054;BME280;32811;52.382;5.270;2022-08-19T08:46:13;101457.78;;;20.84;100.00
47054;BME280;32811;52.382;5.270;2022-08-19T08:52:03;101459.94;;;20.70;100.00
47054;BME280;32811;52.382;5.270;2022-08-19T08:54:37;101454.91;;;20.62;100.00
47054;BME280;32811;52.382;5.270;2022-08-19T08:57:09;101454.81;;;20.65;100.00
47054;BME280;32811;52.382;5.270;2022-08-19T08:59:39;101454.19;;;20.87;100.00
47054;BME280;32811;52.382;5.270;2022-08-19T09:02:07;101454.22;;;21.17;100.00
47054;BME280;32811;52.382;5.270;2022-08-19T09:04:36;101441.56;;;21.29;100.00
47054;BME280;32811;52.382;5.270;2022-08-19T09:10:12;101457.06;;;22.20;100.00
47054;BME280;32811;52.382;5.270;2022-08-19T09:15:25;101457.88;;;22.96;100.00
47054;BME280;32811;52.382;5.270;2022-08-19T09:18:03;101446.63;;;23.16;100.00
47054;BME280;32811;52.382;5.270;2022-08-19T09:20:33;101451.28;;;23.09;100.00
47054;BME280;32811;52.382;5.270;2022-08-19T09:22:59;101454.13;;;23.03;100.00
47054;BME280;32811;52.382;5.270;2022-08-19T09:25:26;101458.31;;;22.84;100.00
47054;BME280;32811;52.382;5.270;2022-08-19T09:27:55;101458.75;;;22.73;100.00
47054;BME280;32811;52.382;5.270;2022-08-19T09:30:34;101467.88;;;22.63;100.00
47054;BME280;32811;52.382;5.270;2022-08-19T09:33:01;101468.78;;;22.62;100.00
47054;BME280;32811;52.382;5.270;2022-08-19T09:35:29;101463.38;;;22.41;100.00
47054;BME280;32811;52.382;5.270;2022-08-19T09:37:57;101457.25;;;22.14;100.00
47054;BME280;32811;52.382;5.270;2022-08-19T09:40:29;101462.63;;;22.11;100.00
47054;BME280;32811;52.382;5.270;2022-08-19T09:43:03;101463.81;;;22.02;100.00
47054;BME280;32811;52.382;5.270;2022-08-19T09:45:38;101446.69;;;21.90;100.00
47054;BME280;32811;52.382;5.270;2022-08-19T09:48:04;101462.03;;;22.03;100.00
47054;BME280;32811;52.382;5.270;2022-08-19T09:50:32;101454.84;;;22.08;100.00
47054;BME280;32811;52.382;5.270;2022-08-19T09:53:00;101463.22;;;22.19;100.00
47054;BME280;32811;52.382;5.270;2022-08-19T09:55:26;101468.25;;;22.52;100.00
47054;BME280;32811;52.382;5.270;2022-08-19T09:57:59;101471.78;;;22.76;100.00
47054;BME280;32811;52.382;5.270;2022-08-19T10:00:26;101474.03;;;22.87;100.00
47054;BME280;32811;52.382;5.270;2022-08-19T10:02:53;101464.66;;;22.79;100.00
47054;BME280;32811;52.382;5.270;2022-08-19T10:05:19;101465.25;;;22.63;100.00
47054;BME280;32811;52.382;5.270;2022-08-19T10:08:08;101462.50;;;22.41;100.00
47054;BME280;32811;52.382;5.270;2022-08-19T10:10:40;101469.09;;;22.52;100.00
47054;BME280;32811;52.382;5.270;2022-08-19T10:13:15;101464.66;;;22.54;100.00
47054;BME280;32811;52.382;5.270;2022-08-19T10:15:42;101466.50;;;23.01;100.00
47054;BME280;32811;52.382;5.270;2022-08-19T10:18:15;101460.31;;;23.48;100.00
47054;BME280;32811;52.382;5.270;2022-08-19T10:20:45;101444.34;;;23.73;100.00
47054;BME280;32811;52.382;5.270;2022-08-19T10:23:20;101439.88;;;23.76;100.00
47054;BME280;32811;52.382;5.270;2022-08-19T10:25:47;101451.16;;;24.00;100.00
47054;BME280;32811;52.382;5.270;2022-08-19T10:28:14;101452.28;;;23.95;100.00
47054;BME280;32811;52.382;5.270;2022-08-19T10:30:40;101453.91;;;23.77;100.00
47054;BME280;32811;52.382;5.270;2022-08-19T10:33:08;101450.13;;;23.38;100.00
47054;BME280;32811;52.382;5.270;2022-08-19T10:35:36;101459.13;;;23.11;100.00
47054;BME280;32811;52.382;5.270;2022-08-19T10:38:23;101452.50;;;22.99;100.00
47054;BME280;32811;52.382;5.270;2022-08-19T10:41:05;101459.91;;;22.89;100.00
47054;BME280;32811;52.382;5.270;2022-08-19T10:43:35;101460.44;;;22.74;100.00
47054;BME280;32811;52.382;5.270;2022-08-19T10:46:10;101462.69;;;22.85;100.00
47054;BME280;32811;52.382;5.270;2022-08-19T10:48:43;101454.09;;;23.05;100.00
47054;BME280;32811;52.382;5.270;2022-08-19T10:51:11;101452.34;;;23.27;100.00
47054;BME280;32811;52.382;5.270;2022-08-19T10:53:57;101450.13;;;23.38;100.00
47054;BME280;32811;52.382;5.270;2022-08-19T10:56:25;101444.00;;;23.82;100.00
47054;BME280;32811;52.382;5.270;2022-08-19T10:59:11;101443.72;;;24.10;100.00
47054;BME280;32811;52.382;5.270;2022-08-19T11:01:41;101448.25;;;24.07;100.00
47054;BME280;32811;52.382;5.270;2022-08-19T11:04:08;101446.00;;;23.97;100.00
47054;BME280;32811;52.382;5.270;2022-08-19T11:06:37;101450.56;;;23.72;100.00
47054;BME280;32811;52.382;5.270;2022-08-19T11:09:05;101438.25;;;23.50;100.00
47054;BME280;32811;52.382;5.270;2022-08-19T11:11:32;101449.75;;;23.26;100.00
47054;BME280;32811;52.382;5.270;2022-08-19T11:14:04;101441.91;;;23.02;100.00
47054;BME280;32811;52.382;5.270;2022-08-19T11:16:31;101452.56;;;22.74;100.00
47054;BME280;32811;52.382;5.270;2022-08-19T11:18:59;101448.59;;;22.62;100.00
47054;BME280;32811;52.382;5.270;2022-08-19T11:21:31;101452.50;;;22.50;100.00
47054;BME280;32811;52.382;5.270;2022-08-19T11:24:01;101445.00;;;22.65;100.00
47054;BME280;32811;52.382;5.270;2022-08-19T11:26:29;101455.16;;;22.75;100.00
47054;BME280;32811;52.382;5.270;2022-08-19T11:28:57;101444.44;;;22.80;100.00
47054;BME280;32811;52.382;5.270;2022-08-19T11:31:27;101438.38;;;22.78;100.00
47054;BME280;32811;52.382;5.270;2022-08-19T11:34:01;101433.69;;;23.10;100.00
47054;BME280;32811;52.382;5.270;2022-08-19T11:36:30;101438.59;;;23.19;100.00
47054;BME280;32811;52.382;5.270;2022-08-19T11:38:57;101436.00;;;23.17;100.00
47054;BME280;32811;52.382;5.270;2022-08-19T11:41:25;101440.44;;;23.17;100.00
47054;BME280;32811;52.382;5.270;2022-08-19T11:43:53;101427.50;;;23.33;100.00
47054;BME280;32811;52.382;5.270;2022-08-19T11:46:23;101424.22;;;23.50;100.00
47054;BME280;32811;52.382;5.270;2022-08-19T11:48:50;101429.13;;;23.81;100.00
47054;BME280;32811;52.382;5.270;2022-08-19T11:51:22;101436.53;;;24.34;100.00
47054;BME280;32811;52.382;5.270;2022-08-19T11:53:51;101434.78;;;24.74;100.00
47054;BME280;32811;52.382;5.270;2022-08-19T11:56:19;101434.56;;;25.17;100.00
47054;BME280;32811;52.382;5.270;2022-08-19T11:58:46;101429.22;;;25.37;100.00
47054;BME280;32811;52.382;5.270;2022-08-19T12:01:16;101440.28;;;25.08;100.00
47054;BME280;32811;52.382;5.270;2022-08-19T12:03:44;101441.50;;;24.81;100.00
47054;BME280;32811;52.382;5.270;2022-08-19T12:06:14;101440.28;;;24.49;100.00
47054;BME280;32811;52.382;5.270;2022-08-19T12:08:42;101442.06;;;24.49;100.00
47054;BME280;32811;52.382;5.270;2022-08-19T12:11:10;101447.63;;;24.63;100.00
47054;BME280;32811;52.382;5.270;2022-08-19T12:13:38;101448.84;;;24.75;100.00
47054;BME280;32811;52.382;5.270;2022-08-19T12:16:13;101440.88;;;24.56;100.00
47054;BME280;32811;52.382;5.270;2022-08-19T12:18:43;101439.09;;;24.36;100.00
47054;BME280;32811;52.382;5.270;2022-08-19T12:21:17;101450.78;;;24.30;100.00
47054;BME280;32811;52.382;5.270;2022-08-19T12:23:44;101448.72;;;24.37;100.00
47054;BME280;32811;52.382;5.270;2022-08-19T12:26:17;101440.38;;;24.27;100.00
47054;BME280;32811;52.382;5.270;2022-08-19T12:28:44;101448.66;;;24.18;100.00
47054;BME280;32811;52.382;5.270;2022-08-19T12:31:11;101434.19;;;23.86;100.00
47054;BME280;32811;52.382;5.270;2022-08-19T12:33:39;101446.53;;;23.85;100.00
47054;BME280;32811;52.382;5.270;2022-08-19T12:36:08;101442.31;;;23.81;100.00
47054;BME280;32811;52.382;5.270;2022-08-19T12:38:36;101445.31;;;23.94;100.00
47054;BME280;32811;52.382;5.270;2022-08-19T12:41:04;101445.56;;;24.08;100.00
47054;BME280;32811;52.382;5.270;2022-08-19T12:43:34;101431.56;;;24.06;100.00
47054;BME280;32811;52.382;5.270;2022-08-19T12:46:05;101427.03;;;24.10;100.00
47054;BME280;32811;52.382;5.270;2022-08-19T12:48:32;101434.00;;;24.11;100.00
47054;BME280;32811;52.382;5.270;2022-08-19T12:51:06;101435.81;;;24.10;100.00
47054;BME280;32811;52.382;5.270;2022-08-19T12:53:33;101432.38;;;24.29;100.00
47054;BME280;32811;52.382;5.270;2022-08-19T12:56:05;101427.09;;;24.49;100.00
47054;BME280;32811;52.382;5.270;2022-08-19T12:58:36;101431.03;;;24.59;100.00
47054;BME280;32811;52.382;5.270;2022-08-19T13:01:11;101426.69;;;24.38;100.00
47054;BME280;32811;52.382;5.270;2022-08-19T13:03:38;101432.38;;;24.29;100.00
47054;BME280;32811;52.382;5.270;2022-08-19T13:06:07;101436.25;;;24.20;100.00
47054;BME280;32811;52.382;5.270;2022-08-19T13:08:35;101429.34;;;24.17;100.00